sensor_id;sensor_type;location;lat;lon;timestamp;P1;durP1;ratioP1;P2;durP2;ratioP2
38089;SDS011;23904;52.322;10.232;2023-02-15T00:01:36;49.53;;;28.48;;
38089;SDS011;23904;52.322;10.232;2023-02-15T00:04:03;54.05;;;28.55;;
38089;SDS011;23904;52.322;10.232;2023-02-15T00:06:30;49.83;;;27.52;;
38089;SDS011;23904;52.322;10.232;2023-02-15T00:08:57;44.42;;;24.90;;
38089;SDS011;23904;52.322;10.232;2023-02-15T00:11:23;45.80;;;24.17;;
38089;SDS011;23904;52.322;10.232;2023-02-15T00:14:15;46.20;;;23.83;;
38089;SDS011;23904;52.322;10.232;2023-02-15T00:16:44;44.70;;;22.40;;
38089;SDS011;23904;52.322;10.232;2023-02-15T00:19:10;48.00;;;23.30;;
38089;SDS011;23904;52.322;10.232;2023-02-15T00:21:38;39.15;;;23.45;;
38089;SDS011;23904;52.322;10.232;2023-02-15T00:24:05;40.45;;;20.80;;
38089;SDS011;23904;52.322;10.232;2023-02-15T00:26:34;36.85;;;20.25;;
38089;SDS011;23904;52.322;10.232;2023-02-15T00:29:00;40.90;;;23.02;;
38089;SDS011;23904;52.322;10.232;2023-02-15T00:31:27;38.95;;;21.52;;
38089;SDS011;23904;52.322;10.232;2023-02-15T00:33:55;34.97;;;19.27;;
38089;SDS011;23904;52.322;10.232;2023-02-15T00:36:29;30.42;;;17.48;;
38089;SDS011;23904;52.322;10.232;2023-02-15T00:38:55;31.13;;;18.83;;
38089;SDS011;23904;52.322;10.232;2023-02-15T00:41:21;32.83;;;19.33;;
38089;SDS011;23904;52.322;10.232;2023-02-15T00:43:46;30.15;;;18.42;;
38089;SDS011;23904;52.322;10.232;2023-02-15T00:46:12;31.08;;;18.02;;
38089;SDS011;23904;52.322;10.232;2023-02-15T00:48:38;30.55;;;17.70;;
38089;SDS011;23904;52.322;10.232;2023-02-15T00:51:03;30.48;;;17.90;;
38089;SDS011;23904;52.322;10.232;2023-02-15T00:53:29;35.13;;;18.27;;
38089;SDS011;23904;52.322;10.232;2023-02-15T00:55:55;30.38;;;16.38;;
38089;SDS011;23904;52.322;10.232;2023-02-15T00:58:22;30.48;;;16.60;;
38089;SDS011;23904;52.322;10.232;2023-02-15T01:00:48;27.40;;;15.38;;
38089;SDS011;23904;52.322;10.232;2023-02-15T01:03:14;25.15;;;15.40;;
38089;SDS011;23904;52.322;10.232;2023-02-15T01:05:42;23.88;;;15.52;;
38089;SDS011;23904;52.322;10.232;2023-02-15T01:08:07;27.52;;;16.23;;
38089;SDS011;23904;52.322;10.232;2023-02-15T01:10:34;27.15;;;15.60;;
38089;SDS011;23904;52.322;10.232;2023-02-15T01:13:00;28.48;;;15.73;;
38089;SDS011;23904;52.322;10.232;2023-02-15T01:15:27;32.67;;;17.33;;
38089;SDS011;23904;52.322;10.232;2023-02-15T01:17:53;26.63;;;16.33;;
38089;SDS011;23904;52.322;10.232;2023-02-15T01:20:19;29.80;;;15.60;;
38089;SDS011;23904;52.322;10.232;2023-02-15T01:22:47;24.20;;;15.77;;
38089;SDS011;23904;52.322;10.232;2023-02-15T01:25:14;25.45;;;15.90;;
38089;SDS011;23904;52.322;10.232;2023-02-15T01:27:41;30.92;;;16.65;;
38089;SDS011;23904;52.322;10.232;2023-02-15T01:30:07;25.10;;;15.88;;
38089;SDS011;23904;52.322;10.232;2023-02-15T01:32:34;27.95;;;16.00;;
38089;SDS011;23904;52.322;10.232;2023-02-15T01:35:00;30.38;;;17.05;;
38089;SDS011;23904;52.322;10.232;2023-02-15T01:37:26;32.78;;;16.23;;
38089;SDS011;23904;52.322;10.232;2023-02-15T01:39:52;30.17;;;16.75;;
38089;SDS011;23904;52.322;10.232;2023-02-15T01:42:22;30.35;;;17.67;;
38089;SDS011;23904;52.322;10.232;2023-02-15T01:44:49;28.10;;;16.17;;
38089;SDS011;23904;52.322;10.232;2023-02-15T01:47:26;32.72;;;19.27;;
38089;SDS011;23904;52.322;10.232;2023-02-15T01:50:45;28.60;;;17.25;;
38089;SDS011;23904;52.322;10.232;2023-02-15T01:53:11;30.88;;;18.20;;
38089;SDS011;23904;52.322;10.232;2023-02-15T01:55:55;33.22;;;18.55;;
38089;SDS011;23904;52.322;10.232;2023-02-15T01:58:25;37.95;;;18.90;;
38089;SDS011;23904;52.322;10.232;2023-02-15T02:00:56;36.33;;;20.25;;
38089;SDS011;23904;52.322;10.232;2023-02-15T02:03:36;40.97;;;22.38;;
38089;SDS011;23904;52.322;10.232;2023-02-15T02:06:32;37.85;;;19.95;;
38089;SDS011;23904;52.322;10.232;2023-02-15T02:09:00;40.45;;;20.42;;
38089;SDS011;23904;52.322;10.232;2023-02-15T02:11:27;41.65;;;20.50;;
38089;SDS011;23904;52.322;10.232;2023-02-15T02:13:53;36.38;;;20.38;;
38089;SDS011;23904;52.322;10.232;2023-02-15T02:16:24;38.42;;;19.27;;
38089;SDS011;23904;52.322;10.232;2023-02-15T02:28:18;32.50;;;18.75;;
38089;SDS011;23904;52.322;10.232;2023-02-15T02:34:49;39.50;;;19.42;;
38089;SDS011;23904;52.322;10.232;2023-02-15T02:37:27;33.78;;;18.38;;
38089;SDS011;23904;52.322;10.232;2023-02-15T02:43:06;33.70;;;18.80;;
38089;SDS011;23904;52.322;10.232;2023-02-15T02:45:50;35.70;;;20.58;;
38089;SDS011;23904;52.322;10.232;2023-02-15T02:48:32;35.20;;;19.52;;
38089;SDS011;23904;52.322;10.232;2023-02-15T02:50:59;40.47;;;19.45;;
38089;SDS011;23904;52.322;10.232;2023-02-15T02:53:24;49.05;;;21.70;;
38089;SDS011;23904;52.322;10.232;2023-02-15T02:55:56;43.33;;;21.75;;
38089;SDS011;23904;52.322;10.232;2023-02-15T02:59:01;40.10;;;20.25;;
38089;SDS011;23904;52.322;10.232;2023-02-15T03:01:37;36.40;;;19.45;;
38089;SDS011;23904;52.322;10.232;2023-02-15T03:04:11;37.25;;;19.35;;
38089;SDS011;23904;52.322;10.232;2023-02-15T03:09:24;32.97;;;18.17;;
38089;SDS011;23904;52.322;10.232;2023-02-15T03:12:07;39.67;;;18.45;;
38089;SDS011;23904;52.322;10.232;2023-02-15T03:14:44;33.60;;;18.27;;
38089;SDS011;23904;52.322;10.232;2023-02-15T03:17:13;30.55;;;17.75;;
38089;SDS011;23904;52.322;10.232;2023-02-15T03:19:42;28.33;;;16.15;;
38089;SDS011;23904;52.322;10.232;2023-02-15T03:22:15;40.08;;;18.65;;
38089;SDS011;23904;52.322;10.232;2023-02-15T03:27:49;33.90;;;18.87;;
38089;SDS011;23904;52.322;10.232;2023-02-15T03:30:20;36.17;;;21.08;;
38089;SDS011;23904;52.322;10.232;2023-02-15T03:32:48;38.47;;;20.08;;
38089;SDS011;23904;52.322;10.232;2023-02-15T03:35:16;35.40;;;20.20;;
38089;SDS011;23904;52.322;10.232;2023-02-15T03:37:47;34.50;;;20.00;;
38089;SDS011;23904;52.322;10.232;2023-02-15T03:43:07;35.92;;;20.63;;
38089;SDS011;23904;52.322;10.232;2023-02-15T03:45:48;34.13;;;19.85;;
38089;SDS011;23904;52.322;10.232;2023-02-15T03:48:25;41.55;;;22.20;;
38089;SDS011;23904;52.322;10.232;2023-02-15T03:50:57;40.45;;;21.73;;
38089;SDS011;23904;52.322;10.232;2023-02-15T03:53:47;45.60;;;23.45;;
38089;SDS011;23904;52.322;10.232;2023-02-15T03:56:19;31.45;;;16.27;;
38089;SDS011;23904;52.322;10.232;2023-02-15T03:58:45;46.13;;;22.10;;
38089;SDS011;23904;52.322;10.232;2023-02-15T04:06:59;40.83;;;20.80;;
38089;SDS011;23904;52.322;10.232;2023-02-15T04:09:25;41.55;;;20.88;;
38089;SDS011;23904;52.322;10.232;2023-02-15T04:14:35;33.72;;;18.27;;
38089;SDS011;23904;52.322;10.232;2023-02-15T04:17:19;36.97;;;19.10;;
38089;SDS011;23904;52.322;10.232;2023-02-15T04:19:44;31.35;;;17.73;;
38089;SDS011;23904;52.322;10.232;2023-02-15T04:25:12;31.13;;;17.60;;
38089;SDS011;23904;52.322;10.232;2023-02-15T04:27:42;33.55;;;17.33;;
38089;SDS011;23904;52.322;10.232;2023-02-15T04:30:17;32.25;;;18.52;;
38089;SDS011;23904;52.322;10.232;2023-02-15T04:32:45;29.02;;;16.05;;
38089;SDS011;23904;52.322;10.232;2023-02-15T04:35:11;36.30;;;19.90;;
38089;SDS011;23904;52.322;10.232;2023-02-15T04:37:38;31.52;;;17.98;;
38089;SDS011;23904;52.322;10.232;2023-02-15T04:40:05;29.23;;;17.45;;
38089;SDS011;23904;52.322;10.232;2023-02-15T04:42:32;32.75;;;18.25;;
38089;SDS011;23904;52.322;10.232;2023-02-15T04:44:58;33.78;;;19.23;;
38089;SDS011;23904;52.322;10.232;2023-02-15T04:47:23;31.98;;;17.58;;
38089;SDS011;23904;52.322;10.232;2023-02-15T04:49:49;31.27;;;17.75;;
38089;SDS011;23904;52.322;10.232;2023-02-15T04:52:15;32.80;;;18.02;;
38089;SDS011;23904;52.322;10.232;2023-02-15T04:54:42;35.15;;;18.02;;
38089;SDS011;23904;52.322;10.232;2023-02-15T04:57:07;34.45;;;20.02;;
38089;SDS011;23904;52.322;10.232;2023-02-15T04:59:33;41.28;;;21.08;;
38089;SDS011;23904;52.322;10.232;2023-02-15T05:01:59;40.50;;;21.38;;
38089;SDS011;23904;52.322;10.232;2023-02-15T05:04:24;58.38;;;24.40;;
38089;SDS011;23904;52.322;10.232;2023-02-15T05:06:50;48.55;;;22.85;;
38089;SDS011;23904;52.322;10.232;2023-02-15T05:09:15;37.55;;;20.85;;
38089;SDS011;23904;52.322;10.232;2023-02-15T05:11:41;37.38;;;19.40;;
38089;SDS011;23904;52.322;10.232;2023-02-15T05:14:06;31.63;;;17.73;;
38089;SDS011;23904;52.322;10.232;2023-02-15T05:16:32;35.67;;;20.05;;
38089;SDS011;23904;52.322;10.232;2023-02-15T05:18:58;40.33;;;22.85;;
38089;SDS011;23904;52.322;10.232;2023-02-15T05:21:23;42.40;;;23.02;;
38089;SDS011;23904;52.322;10.232;2023-02-15T05:23:49;46.20;;;24.52;;
38089;SDS011;23904;52.322;10.232;2023-02-15T05:26:19;44.28;;;22.33;;
38089;SDS011;23904;52.322;10.232;2023-02-15T05:29:06;46.20;;;23.58;;
38089;SDS011;23904;52.322;10.232;2023-02-15T05:31:32;43.55;;;22.27;;
38089;SDS011;23904;52.322;10.232;2023-02-15T05:33:58;43.78;;;22.77;;
38089;SDS011;23904;52.322;10.232;2023-02-15T05:36:24;40.72;;;21.95;;
38089;SDS011;23904;52.322;10.232;2023-02-15T05:38:50;35.15;;;19.42;;
38089;SDS011;23904;52.322;10.232;2023-02-15T05:41:15;35.17;;;20.17;;
38089;SDS011;23904;52.322;10.232;2023-02-15T05:43:41;37.28;;;21.10;;
38089;SDS011;23904;52.322;10.232;2023-02-15T05:46:07;37.05;;;20.65;;
38089;SDS011;23904;52.322;10.232;2023-02-15T05:48:33;31.77;;;19.42;;
38089;SDS011;23904;52.322;10.232;2023-02-15T05:51:03;39.13;;;20.98;;
38089;SDS011;23904;52.322;10.232;2023-02-15T05:53:33;34.70;;;19.67;;
38089;SDS011;23904;52.322;10.232;2023-02-15T05:56:01;35.17;;;18.85;;
38089;SDS011;23904;52.322;10.232;2023-02-15T05:58:32;37.97;;;20.02;;
38089;SDS011;23904;52.322;10.232;2023-02-15T06:01:10;37.08;;;20.73;;
38089;SDS011;23904;52.322;10.232;2023-02-15T06:03:38;40.40;;;20.88;;
38089;SDS011;23904;52.322;10.232;2023-02-15T06:06:04;42.70;;;22.67;;
38089;SDS011;23904;52.322;10.232;2023-02-15T06:08:31;38.83;;;21.98;;
38089;SDS011;23904;52.322;10.232;2023-02-15T06:10:58;40.72;;;22.58;;
38089;SDS011;23904;52.322;10.232;2023-02-15T06:13:23;38.65;;;21.92;;
38089;SDS011;23904;52.322;10.232;2023-02-15T06:15:49;42.53;;;22.13;;
38089;SDS011;23904;52.322;10.232;2023-02-15T06:18:14;36.83;;;20.67;;
38089;SDS011;23904;52.322;10.232;2023-02-15T06:20:40;40.17;;;20.98;;
38089;SDS011;23904;52.322;10.232;2023-02-15T06:23:06;38.38;;;20.63;;
38089;SDS011;23904;52.322;10.232;2023-02-15T06:25:31;40.03;;;21.00;;
38089;SDS011;23904;52.322;10.232;2023-02-15T06:27:57;36.38;;;19.75;;
38089;SDS011;23904;52.322;10.232;2023-02-15T06:30:22;33.85;;;19.70;;
38089;SDS011;23904;52.322;10.232;2023-02-15T06:32:48;43.10;;;22.95;;
38089;SDS011;23904;52.322;10.232;2023-02-15T06:35:13;57.47;;;27.42;;
38089;SDS011;23904;52.322;10.232;2023-02-15T06:37:39;43.72;;;22.63;;
38089;SDS011;23904;52.322;10.232;2023-02-15T06:40:04;77.10;;;28.85;;
38089;SDS011;23904;52.322;10.232;2023-02-15T06:42:31;77.63;;;31.58;;
38089;SDS011;23904;52.322;10.232;2023-02-15T06:44:57;58.35;;;28.55;;
38089;SDS011;23904;52.322;10.232;2023-02-15T06:47:23;52.83;;;25.13;;
38089;SDS011;23904;52.322;10.232;2023-02-15T06:49:49;43.42;;;22.27;;
38089;SDS011;23904;52.322;10.232;2023-02-15T06:52:15;44.47;;;21.52;;
38089;SDS011;23904;52.322;10.232;2023-02-15T06:54:40;37.58;;;20.13;;
38089;SDS011;23904;52.322;10.232;2023-02-15T06:57:05;38.30;;;21.10;;
38089;SDS011;23904;52.322;10.232;2023-02-15T06:59:31;37.72;;;19.13;;
38089;SDS011;23904;52.322;10.232;2023-02-15T07:01:57;36.85;;;20.60;;
38089;SDS011;23904;52.322;10.232;2023-02-15T07:04:22;37.28;;;18.85;;
38089;SDS011;23904;52.322;10.232;2023-02-15T07:06:48;31.90;;;20.17;;
38089;SDS011;23904;52.322;10.232;2023-02-15T07:09:13;36.65;;;20.45;;
38089;SDS011;23904;52.322;10.232;2023-02-15T07:11:39;36.45;;;18.73;;
38089;SDS011;23904;52.322;10.232;2023-02-15T07:16:48;30.83;;;17.73;;
38089;SDS011;23904;52.322;10.232;2023-02-15T07:19:14;31.27;;;18.08;;
38089;SDS011;23904;52.322;10.232;2023-02-15T07:21:39;36.22;;;17.70;;
38089;SDS011;23904;52.322;10.232;2023-02-15T07:24:05;36.50;;;19.65;;
38089;SDS011;23904;52.322;10.232;2023-02-15T07:26:31;31.58;;;18.90;;
38089;SDS011;23904;52.322;10.232;2023-02-15T07:28:57;34.80;;;18.50;;
38089;SDS011;23904;52.322;10.232;2023-02-15T07:31:22;29.77;;;16.13;;
38089;SDS011;23904;52.322;10.232;2023-02-15T07:33:48;28.83;;;16.27;;
38089;SDS011;23904;52.322;10.232;2023-02-15T07:36:14;27.00;;;16.27;;
38089;SDS011;23904;52.322;10.232;2023-02-15T07:38:40;41.33;;;16.83;;
38089;SDS011;23904;52.322;10.232;2023-02-15T07:41:08;31.25;;;17.25;;
38089;SDS011;23904;52.322;10.232;2023-02-15T07:43:37;23.42;;;13.45;;
38089;SDS011;23904;52.322;10.232;2023-02-15T07:46:07;26.45;;;15.27;;
38089;SDS011;23904;52.322;10.232;2023-02-15T07:48:36;22.75;;;15.02;;
38089;SDS011;23904;52.322;10.232;2023-02-15T07:51:04;28.83;;;17.05;;
38089;SDS011;23904;52.322;10.232;2023-02-15T07:53:32;21.27;;;14.70;;
38089;SDS011;23904;52.322;10.232;2023-02-15T07:55:58;23.75;;;15.48;;
38089;SDS011;23904;52.322;10.232;2023-02-15T07:58:28;27.17;;;15.55;;
38089;SDS011;23904;52.322;10.232;2023-02-15T08:03:41;21.52;;;13.85;;
38089;SDS011;23904;52.322;10.232;2023-02-15T08:06:07;24.50;;;16.42;;
38089;SDS011;23904;52.322;10.232;2023-02-15T08:08:33;27.85;;;17.10;;
38089;SDS011;23904;52.322;10.232;2023-02-15T08:13:55;32.35;;;18.33;;
38089;SDS011;23904;52.322;10.232;2023-02-15T08:19:21;26.80;;;17.85;;
38089;SDS011;23904;52.322;10.232;2023-02-15T08:21:54;33.05;;;18.50;;
38089;SDS011;23904;52.322;10.232;2023-02-15T08:24:32;30.45;;;18.58;;
38089;SDS011;23904;52.322;10.232;2023-02-15T08:27:01;35.55;;;20.40;;
38089;SDS011;23904;52.322;10.232;2023-02-15T08:29:28;30.85;;;17.45;;
38089;SDS011;23904;52.322;10.232;2023-02-15T08:31:56;31.10;;;16.83;;
38089;SDS011;23904;52.322;10.232;2023-02-15T08:34:26;27.38;;;15.40;;
38089;SDS011;23904;52.322;10.232;2023-02-15T08:36:54;22.73;;;13.15;;
38089;SDS011;23904;52.322;10.232;2023-02-15T08:39:24;23.30;;;14.18;;
38089;SDS011;23904;52.322;10.232;2023-02-15T08:41:50;22.90;;;13.35;;
38089;SDS011;23904;52.322;10.232;2023-02-15T08:44:17;26.27;;;14.07;;
38089;SDS011;23904;52.322;10.232;2023-02-15T08:46:45;24.98;;;13.80;;
38089;SDS011;23904;52.322;10.232;2023-02-15T08:49:13;25.17;;;15.13;;
38089;SDS011;23904;52.322;10.232;2023-02-15T08:51:44;21.13;;;13.30;;
38089;SDS011;23904;52.322;10.232;2023-02-15T08:54:12;23.30;;;13.15;;
38089;SDS011;23904;52.322;10.232;2023-02-15T08:56:41;21.42;;;13.80;;
38089;SDS011;23904;52.322;10.232;2023-02-15T08:59:12;18.95;;;12.02;;
38089;SDS011;23904;52.322;10.232;2023-02-15T09:01:41;19.27;;;12.90;;
38089;SDS011;23904;52.322;10.232;2023-02-15T09:04:07;19.77;;;11.95;;
38089;SDS011;23904;52.322;10.232;2023-02-15T09:06:34;16.20;;;10.50;;
38089;SDS011;23904;52.322;10.232;2023-02-15T09:09:00;20.23;;;11.70;;
38089;SDS011;23904;52.322;10.232;2023-02-15T09:11:27;22.60;;;12.15;;
38089;SDS011;23904;52.322;10.232;2023-02-15T09:13:56;14.88;;;10.70;;
38089;SDS011;23904;52.322;10.232;2023-02-15T09:16:25;17.73;;;10.73;;
38089;SDS011;23904;52.322;10.232;2023-02-15T09:18:54;18.00;;;11.27;;
38089;SDS011;23904;52.322;10.232;2023-02-15T09:21:22;15.77;;;10.25;;
38089;SDS011;23904;52.322;10.232;2023-02-15T09:23:50;16.63;;;10.30;;
38089;SDS011;23904;52.322;10.232;2023-02-15T09:26:18;14.77;;;9.90;;
38089;SDS011;23904;52.322;10.232;2023-02-15T09:28:46;15.13;;;10.02;;
38089;SDS011;23904;52.322;10.232;2023-02-15T09:31:17;20.17;;;10.98;;
38089;SDS011;23904;52.322;10.232;2023-02-15T09:33:48;21.13;;;11.57;;
38089;SDS011;23904;52.322;10.232;2023-02-15T09:36:21;19.67;;;11.32;;
38089;SDS011;23904;52.322;10.232;2023-02-15T09:53:29;10.88;;;7.85;;
38089;SDS011;23904;52.322;10.232;2023-02-15T09:56:31;8.75;;;7.07;;
38089;SDS011;23904;52.322;10.232;2023-02-15T10:02:02;9.23;;;7.20;;
38089;SDS011;23904;52.322;10.232;2023-02-15T10:05:07;10.20;;;7.88;;
38089;SDS011;23904;52.322;10.232;2023-02-15T10:07:52;9.15;;;7.40;;
38089;SDS011;23904;52.322;10.232;2023-02-15T10:14:15;8.38;;;6.20;;
38089;SDS011;23904;52.322;10.232;2023-02-15T10:28:06;8.23;;;5.30;;
38089;SDS011;23904;52.322;10.232;2023-02-15T10:34:09;7.72;;;5.35;;
38089;SDS011;23904;52.322;10.232;2023-02-15T10:37:02;6.20;;;5.47;;
38089;SDS011;23904;52.322;10.232;2023-02-15T10:39:56;7.00;;;6.30;;
38089;SDS011;23904;52.322;10.232;2023-02-15T10:49:04;6.93;;;5.20;;
38089;SDS011;23904;52.322;10.232;2023-02-15T10:51:49;6.93;;;5.03;;
38089;SDS011;23904;52.322;10.232;2023-02-15T10:54:44;6.03;;;5.40;;
38089;SDS011;23904;52.322;10.232;2023-02-15T11:00:41;7.10;;;5.80;;
38089;SDS011;23904;52.322;10.232;2023-02-15T11:06:50;8.02;;;6.15;;
38089;SDS011;23904;52.322;10.232;2023-02-15T11:09:22;8.75;;;5.90;;
38089;SDS011;23904;52.322;10.232;2023-02-15T11:11:53;7.60;;;6.30;;
38089;SDS011;23904;52.322;10.232;2023-02-15T11:17:41;9.60;;;6.40;;
38089;SDS011;23904;52.322;10.232;2023-02-15T11:20:21;14.13;;;6.75;;
38089;SDS011;23904;52.322;10.232;2023-02-15T11:23:06;10.25;;;6.90;;
38089;SDS011;23904;52.322;10.232;2023-02-15T11:25:41;9.75;;;6.47;;
38089;SDS011;23904;52.322;10.232;2023-02-15T11:28:16;10.15;;;6.80;;
38089;SDS011;23904;52.322;10.232;2023-02-15T11:30:54;9.52;;;7.05;;
38089;SDS011;23904;52.322;10.232;2023-02-15T11:33:26;9.95;;;7.32;;
38089;SDS011;23904;52.322;10.232;2023-02-15T11:36:14;10.57;;;6.50;;
38089;SDS011;23904;52.322;10.232;2023-02-15T11:38:48;9.38;;;7.15;;
38089;SDS011;23904;52.322;10.232;2023-02-15T11:41:24;10.98;;;6.38;;
38089;SDS011;23904;52.322;10.232;2023-02-15T11:43:56;9.75;;;6.88;;
38089;SDS011;23904;52.322;10.232;2023-02-15T11:46:24;8.20;;;6.65;;
38089;SDS011;23904;52.322;10.232;2023-02-15T11:48:50;9.63;;;7.38;;
38089;SDS011;23904;52.322;10.232;2023-02-15T11:51:16;10.68;;;7.40;;
38089;SDS011;23904;52.322;10.232;2023-02-15T11:53:46;10.68;;;7.40;;
38089;SDS011;23904;52.322;10.232;2023-02-15T11:56:13;7.50;;;6.65;;
38089;SDS011;23904;52.322;10.232;2023-02-15T11:58:58;12.23;;;7.32;;
38089;SDS011;23904;52.322;10.232;2023-02-15T12:01:33;11.05;;;8.00;;
38089;SDS011;23904;52.322;10.232;2023-02-15T12:04:10;11.98;;;7.82;;
38089;SDS011;23904;52.322;10.232;2023-02-15T12:07:00;12.68;;;8.23;;
38089;SDS011;23904;52.322;10.232;2023-02-15T12:12:47;12.00;;;8.02;;
38089;SDS011;23904;52.322;10.232;2023-02-15T12:15:13;8.82;;;6.53;;
38089;SDS011;23904;52.322;10.232;2023-02-15T12:17:52;10.50;;;7.82;;
38089;SDS011;23904;52.322;10.232;2023-02-15T12:22:50;8.60;;;7.60;;
38089;SDS011;23904;52.322;10.232;2023-02-15T12:31:07;9.73;;;6.40;;
38089;SDS011;23904;52.322;10.232;2023-02-15T12:33:45;8.55;;;6.28;;
38089;SDS011;23904;52.322;10.232;2023-02-15T12:38:49;9.75;;;7.00;;
38089;SDS011;23904;52.322;10.232;2023-02-15T12:44:19;9.35;;;8.10;;
38089;SDS011;23904;52.322;10.232;2023-02-15T12:49:23;11.00;;;7.13;;
38089;SDS011;23904;52.322;10.232;2023-02-15T12:51:50;19.38;;;9.07;;
38089;SDS011;23904;52.322;10.232;2023-02-15T12:56:49;14.02;;;8.48;;
38089;SDS011;23904;52.322;10.232;2023-02-15T12:59:16;13.60;;;8.68;;
38089;SDS011;23904;52.322;10.232;2023-02-15T13:01:45;11.30;;;7.97;;
38089;SDS011;23904;52.322;10.232;2023-02-15T13:06:49;12.23;;;9.38;;
38089;SDS011;23904;52.322;10.232;2023-02-15T13:09:24;14.50;;;8.75;;
38089;SDS011;23904;52.322;10.232;2023-02-15T13:11:57;11.48;;;8.25;;
38089;SDS011;23904;52.322;10.232;2023-02-15T13:14:44;12.07;;;8.90;;
38089;SDS011;23904;52.322;10.232;2023-02-15T13:17:13;22.48;;;8.65;;
38089;SDS011;23904;52.322;10.232;2023-02-15T13:19:46;15.27;;;9.40;;
38089;SDS011;23904;52.322;10.232;2023-02-15T13:22:16;13.45;;;8.40;;
38089;SDS011;23904;52.322;10.232;2023-02-15T13:24:48;13.77;;;8.55;;
38089;SDS011;23904;52.322;10.232;2023-02-15T13:27:19;13.30;;;9.85;;
38089;SDS011;23904;52.322;10.232;2023-02-15T13:29:50;12.77;;;8.52;;
38089;SDS011;23904;52.322;10.232;2023-02-15T13:32:57;12.52;;;8.68;;
38089;SDS011;23904;52.322;10.232;2023-02-15T13:35:20;12.55;;;9.13;;
38089;SDS011;23904;52.322;10.232;2023-02-15T13:40:48;11.60;;;8.63;;
38089;SDS011;23904;52.322;10.232;2023-02-15T13:46:17;12.13;;;9.40;;
38089;SDS011;23904;52.322;10.232;2023-02-15T14:08:50;12.35;;;9.57;;
38089;SDS011;23904;52.322;10.232;2023-02-15T14:11:52;13.23;;;9.63;;
38089;SDS011;23904;52.322;10.232;2023-02-15T14:15:06;15.18;;;10.00;;
38089;SDS011;23904;52.322;10.232;2023-02-15T14:17:41;13.98;;;10.13;;
38089;SDS011;23904;52.322;10.232;2023-02-15T14:26:10;14.32;;;10.05;;
38089;SDS011;23904;52.322;10.232;2023-02-15T14:31:40;15.82;;;9.38;;
38089;SDS011;23904;52.322;10.232;2023-02-15T14:34:29;14.63;;;10.00;;
38089;SDS011;23904;52.322;10.232;2023-02-15T14:37:08;17.33;;;11.13;;
38089;SDS011;23904;52.322;10.232;2023-02-15T14:43:06;17.27;;;10.98;;
38089;SDS011;23904;52.322;10.232;2023-02-15T14:45:42;18.35;;;12.02;;
38089;SDS011;23904;52.322;10.232;2023-02-15T14:51:04;16.90;;;10.65;;
38089;SDS011;23904;52.322;10.232;2023-02-15T14:56:05;16.92;;;10.90;;
38089;SDS011;23904;52.322;10.232;2023-02-15T15:01:24;15.93;;;10.35;;
38089;SDS011;23904;52.322;10.232;2023-02-15T15:04:04;18.55;;;10.27;;
38089;SDS011;23904;52.322;10.232;2023-02-15T15:06:42;18.90;;;10.18;;
38089;SDS011;23904;52.322;10.232;2023-02-15T15:09:13;16.95;;;9.98;;
38089;SDS011;23904;52.322;10.232;2023-02-15T15:11:52;14.40;;;8.95;;
38089;SDS011;23904;52.322;10.232;2023-02-15T15:16:58;19.98;;;10.13;;
38089;SDS011;23904;52.322;10.232;2023-02-15T15:25:02;14.50;;;9.32;;
38089;SDS011;23904;52.322;10.232;2023-02-15T15:27:57;21.95;;;10.77;;
38089;SDS011;23904;52.322;10.232;2023-02-15T15:35:23;17.92;;;10.68;;
38089;SDS011;23904;52.322;10.232;2023-02-15T15:50:18;19.67;;;12.73;;
38089;SDS011;23904;52.322;10.232;2023-02-15T15:52:49;18.13;;;11.15;;
38089;SDS011;23904;52.322;10.232;2023-02-15T15:55:20;18.67;;;11.45;;
38089;SDS011;23904;52.322;10.232;2023-02-15T15:57:50;17.90;;;11.48;;
38089;SDS011;23904;52.322;10.232;2023-02-15T16:03:03;18.42;;;11.18;;
38089;SDS011;23904;52.322;10.232;2023-02-15T16:05:36;19.27;;;10.85;;
38089;SDS011;23904;52.322;10.232;2023-02-15T16:10:29;18.88;;;11.48;;
38089;SDS011;23904;52.322;10.232;2023-02-15T16:12:57;20.35;;;12.02;;
38089;SDS011;23904;52.322;10.232;2023-02-15T16:15:25;15.55;;;10.82;;
38089;SDS011;23904;52.322;10.232;2023-02-15T16:18:02;18.00;;;11.25;;
38089;SDS011;23904;52.322;10.232;2023-02-15T16:26:09;18.50;;;11.35;;
38089;SDS011;23904;52.322;10.232;2023-02-15T16:29:12;18.50;;;12.68;;
38089;SDS011;23904;52.322;10.232;2023-02-15T16:31:55;19.48;;;12.77;;
38089;SDS011;23904;52.322;10.232;2023-02-15T16:34:58;24.00;;;13.60;;
38089;SDS011;23904;52.322;10.232;2023-02-15T16:37:27;22.63;;;13.93;;
38089;SDS011;23904;52.322;10.232;2023-02-15T16:39:58;20.55;;;11.85;;
38089;SDS011;23904;52.322;10.232;2023-02-15T16:42:26;23.08;;;13.80;;
38089;SDS011;23904;52.322;10.232;2023-02-15T16:44:55;20.73;;;12.80;;
38089;SDS011;23904;52.322;10.232;2023-02-15T16:47:32;25.17;;;13.77;;
38089;SDS011;23904;52.322;10.232;2023-02-15T16:52:31;25.50;;;14.13;;
38089;SDS011;23904;52.322;10.232;2023-02-15T16:55:01;28.27;;;14.93;;
38089;SDS011;23904;52.322;10.232;2023-02-15T16:57:31;22.77;;;13.68;;
38089;SDS011;23904;52.322;10.232;2023-02-15T17:00:03;23.30;;;13.32;;
38089;SDS011;23904;52.322;10.232;2023-02-15T17:02:33;27.38;;;13.85;;
38089;SDS011;23904;52.322;10.232;2023-02-15T17:05:10;28.83;;;13.57;;
38089;SDS011;23904;52.322;10.232;2023-02-15T17:07:50;31.45;;;15.35;;
38089;SDS011;23904;52.322;10.232;2023-02-15T17:10:38;23.25;;;14.82;;
38089;SDS011;23904;52.322;10.232;2023-02-15T17:13:13;24.38;;;15.13;;
38089;SDS011;23904;52.322;10.232;2023-02-15T17:21:00;22.38;;;13.90;;
38089;SDS011;23904;52.322;10.232;2023-02-15T17:23:41;28.05;;;16.35;;
38089;SDS011;23904;52.322;10.232;2023-02-15T17:26:11;27.17;;;14.70;;
38089;SDS011;23904;52.322;10.232;2023-02-15T17:28:46;26.92;;;15.55;;
38089;SDS011;23904;52.322;10.232;2023-02-15T17:31:16;23.95;;;15.00;;
38089;SDS011;23904;52.322;10.232;2023-02-15T17:33:44;29.60;;;16.73;;
38089;SDS011;23904;52.322;10.232;2023-02-15T17:41:42;25.77;;;16.05;;
38089;SDS011;23904;52.322;10.232;2023-02-15T17:44:09;23.33;;;14.88;;
38089;SDS011;23904;52.322;10.232;2023-02-15T17:46:38;28.60;;;15.15;;
38089;SDS011;23904;52.322;10.232;2023-02-15T17:49:05;23.02;;;14.35;;
38089;SDS011;23904;52.322;10.232;2023-02-15T17:51:31;23.60;;;14.77;;
38089;SDS011;23904;52.322;10.232;2023-02-15T17:53:59;30.30;;;14.70;;
38089;SDS011;23904;52.322;10.232;2023-02-15T17:56:45;24.17;;;14.23;;
38089;SDS011;23904;52.322;10.232;2023-02-15T17:59:10;21.55;;;13.30;;
38089;SDS011;23904;52.322;10.232;2023-02-15T18:01:39;23.50;;;13.50;;
38089;SDS011;23904;52.322;10.232;2023-02-15T18:04:31;24.63;;;14.70;;
38089;SDS011;23904;52.322;10.232;2023-02-15T18:07:18;23.27;;;14.13;;
38089;SDS011;23904;52.322;10.232;2023-02-15T18:10:05;23.02;;;13.55;;
38089;SDS011;23904;52.322;10.232;2023-02-15T18:13:00;24.17;;;13.85;;
38089;SDS011;23904;52.322;10.232;2023-02-15T18:15:26;23.58;;;13.48;;
38089;SDS011;23904;52.322;10.232;2023-02-15T18:17:52;26.35;;;14.48;;
38089;SDS011;23904;52.322;10.232;2023-02-15T18:20:22;21.83;;;15.02;;